sensor_id;sensor_type;location;lat;lon;timestamp;P1;durP1;ratioP1;P2;durP2;ratioP2
11763;SDS011;5939;56.522;14.950;2023-05-07T00:01:41;1.50;;;1.27;;
11763;SDS011;5939;56.522;14.950;2023-05-07T00:04:07;2.03;;;1.50;;
11763;SDS011;5939;56.522;14.950;2023-05-07T00:06:33;1.53;;;1.30;;
11763;SDS011;5939;56.522;14.950;2023-05-07T00:09:00;1.93;;;1.57;;
11763;SDS011;5939;56.522;14.950;2023-05-07T00:11:27;1.73;;;1.30;;
11763;SDS011;5939;56.522;14.950;2023-05-07T00:13:53;2.50;;;1.50;;
11763;SDS011;5939;56.522;14.950;2023-05-07T00:16:19;1.70;;;1.57;;
11763;SDS011;5939;56.522;14.950;2023-05-07T00:18:45;2.43;;;1.50;;
11763;SDS011;5939;56.522;14.950;2023-05-07T00:21:11;2.03;;;1.57;;
11763;SDS011;5939;56.522;14.950;2023-05-07T00:23:37;1.57;;;1.47;;
11763;SDS011;5939;56.522;14.950;2023-05-07T00:26:03;1.67;;;1.57;;
11763;SDS011;5939;56.522;14.950;2023-05-07T00:28:29;2.80;;;1.57;;
11763;SDS011;5939;56.522;14.950;2023-05-07T00:30:56;2.70;;;1.70;;
11763;SDS011;5939;56.522;14.950;2023-05-07T00:33:22;1.90;;;1.70;;
11763;SDS011;5939;56.522;14.950;2023-05-07T00:35:48;1.80;;;1.40;;
11763;SDS011;5939;56.522;14.950;2023-05-07T00:38:14;1.97;;;1.50;;
11763;SDS011;5939;56.522;14.950;2023-05-07T00:40:40;2.17;;;1.70;;
11763;SDS011;5939;56.522;14.950;2023-05-07T00:43:06;2.47;;;1.40;;
11763;SDS011;5939;56.522;14.950;2023-05-07T00:45:32;1.50;;;1.40;;
11763;SDS011;5939;56.522;14.950;2023-05-07T00:47:59;1.50;;;1.33;;
11763;SDS011;5939;56.522;14.950;2023-05-07T00:50:26;1.37;;;1.13;;
11763;SDS011;5939;56.522;14.950;2023-05-07T00:52:53;2.07;;;1.50;;
11763;SDS011;5939;56.522;14.950;2023-05-07T00:55:19;1.20;;;1.10;;
11763;SDS011;5939;56.522;14.950;2023-05-07T00:57:46;1.50;;;1.40;;
11763;SDS011;5939;56.522;14.950;2023-05-07T01:00:12;3.03;;;1.50;;
11763;SDS011;5939;56.522;14.950;2023-05-07T01:02:38;2.87;;;1.57;;
11763;SDS011;5939;56.522;14.950;2023-05-07T01:05:05;1.60;;;1.50;;
11763;SDS011;5939;56.522;14.950;2023-05-07T01:07:33;2.40;;;1.53;;
11763;SDS011;5939;56.522;14.950;2023-05-07T01:10:00;2.13;;;1.70;;
11763;SDS011;5939;56.522;14.950;2023-05-07T01:12:26;2.00;;;1.50;;
11763;SDS011;5939;56.522;14.950;2023-05-07T01:14:53;1.90;;;1.50;;
11763;SDS011;5939;56.522;14.950;2023-05-07T01:17:19;1.90;;;1.70;;
11763;SDS011;5939;56.522;14.950;2023-05-07T01:19:45;2.20;;;1.53;;
11763;SDS011;5939;56.522;14.950;2023-05-07T01:22:12;2.07;;;1.53;;
11763;SDS011;5939;56.522;14.950;2023-05-07T01:24:41;2.10;;;1.60;;
11763;SDS011;5939;56.522;14.950;2023-05-07T01:27:07;2.13;;;1.40;;
11763;SDS011;5939;56.522;14.950;2023-05-07T01:29:33;1.87;;;1.43;;
11763;SDS011;5939;56.522;14.950;2023-05-07T01:32:00;2.20;;;1.37;;
11763;SDS011;5939;56.522;14.950;2023-05-07T01:34:27;2.67;;;1.50;;
11763;SDS011;5939;56.522;14.950;2023-05-07T01:36:54;2.43;;;1.80;;
11763;SDS011;5939;56.522;14.950;2023-05-07T01:39:22;1.80;;;1.70;;
11763;SDS011;5939;56.522;14.950;2023-05-07T01:41:48;2.47;;;1.47;;
11763;SDS011;5939;56.522;14.950;2023-05-07T01:44:14;2.57;;;1.60;;
11763;SDS011;5939;56.522;14.950;2023-05-07T01:46:41;1.97;;;1.60;;
11763;SDS011;5939;56.522;14.950;2023-05-07T01:49:07;2.20;;;1.67;;
11763;SDS011;5939;56.522;14.950;2023-05-07T01:51:33;1.50;;;1.40;;
11763;SDS011;5939;56.522;14.950;2023-05-07T01:53:59;1.40;;;1.30;;
11763;SDS011;5939;56.522;14.950;2023-05-07T01:56:26;2.23;;;1.50;;
11763;SDS011;5939;56.522;14.950;2023-05-07T01:58:52;2.03;;;1.83;;
11763;SDS011;5939;56.522;14.950;2023-05-07T02:01:18;2.77;;;1.70;;
11763;SDS011;5939;56.522;14.950;2023-05-07T02:03:44;2.10;;;1.40;;
11763;SDS011;5939;56.522;14.950;2023-05-07T02:06:10;3.00;;;1.70;;
11763;SDS011;5939;56.522;14.950;2023-05-07T02:08:36;1.67;;;1.53;;
11763;SDS011;5939;56.522;14.950;2023-05-07T02:11:02;1.70;;;1.30;;
11763;SDS011;5939;56.522;14.950;2023-05-07T02:13:29;2.77;;;1.50;;
11763;SDS011;5939;56.522;14.950;2023-05-07T02:15:55;3.10;;;1.47;;
11763;SDS011;5939;56.522;14.950;2023-05-07T02:18:21;1.63;;;1.50;;
11763;SDS011;5939;56.522;14.950;2023-05-07T02:20:47;1.70;;;1.50;;
11763;SDS011;5939;56.522;14.950;2023-05-07T02:23:13;3.10;;;2.33;;
11763;SDS011;5939;56.522;14.950;2023-05-07T02:25:39;1.77;;;1.50;;
11763;SDS011;5939;56.522;14.950;2023-05-07T02:28:05;2.40;;;1.50;;
11763;SDS011;5939;56.522;14.950;2023-05-07T02:30:31;1.83;;;1.50;;
11763;SDS011;5939;56.522;14.950;2023-05-07T02:32:58;2.60;;;1.57;;
11763;SDS011;5939;56.522;14.950;2023-05-07T02:35:24;1.50;;;1.40;;
11763;SDS011;5939;56.522;14.950;2023-05-07T02:37:51;1.83;;;1.53;;
11763;SDS011;5939;56.522;14.950;2023-05-07T02:40:17;1.80;;;1.50;;
11763;SDS011;5939;56.522;14.950;2023-05-07T02:42:43;1.50;;;1.37;;
11763;SDS011;5939;56.522;14.950;2023-05-07T02:45:09;2.13;;;1.60;;
11763;SDS011;5939;56.522;14.950;2023-05-07T02:47:35;1.60;;;1.30;;
11763;SDS011;5939;56.522;14.950;2023-05-07T02:50:02;1.90;;;1.40;;
11763;SDS011;5939;56.522;14.950;2023-05-07T02:52:28;1.70;;;1.50;;
11763;SDS011;5939;56.522;14.950;2023-05-07T02:54:54;1.63;;;1.43;;
11763;SDS011;5939;56.522;14.950;2023-05-07T02:57:20;1.97;;;1.40;;
11763;SDS011;5939;56.522;14.950;2023-05-07T02:59:46;2.10;;;1.57;;
11763;SDS011;5939;56.522;14.950;2023-05-07T03:02:12;2.23;;;1.50;;
11763;SDS011;5939;56.522;14.950;2023-05-07T03:04:39;2.43;;;1.50;;
11763;SDS011;5939;56.522;14.950;2023-05-07T03:07:05;1.70;;;1.50;;
11763;SDS011;5939;56.522;14.950;2023-05-07T03:09:31;1.70;;;1.60;;
11763;SDS011;5939;56.522;14.950;2023-05-07T03:11:57;2.70;;;1.60;;
11763;SDS011;5939;56.522;14.950;2023-05-07T03:14:23;2.17;;;1.70;;
11763;SDS011;5939;56.522;14.950;2023-05-07T03:16:49;1.60;;;1.40;;
11763;SDS011;5939;56.522;14.950;2023-05-07T03:19:15;1.73;;;1.40;;
11763;SDS011;5939;56.522;14.950;2023-05-07T03:21:41;2.60;;;1.73;;
11763;SDS011;5939;56.522;14.950;2023-05-07T03:24:07;1.57;;;1.47;;
11763;SDS011;5939;56.522;14.950;2023-05-07T03:26:33;2.07;;;1.70;;
11763;SDS011;5939;56.522;14.950;2023-05-07T03:28:59;2.47;;;1.50;;
11763;SDS011;5939;56.522;14.950;2023-05-07T03:31:25;2.63;;;1.60;;
11763;SDS011;5939;56.522;14.950;2023-05-07T03:33:52;2.20;;;1.60;;
11763;SDS011;5939;56.522;14.950;2023-05-07T03:36:19;1.50;;;1.40;;
11763;SDS011;5939;56.522;14.950;2023-05-07T03:38:45;2.13;;;1.47;;
11763;SDS011;5939;56.522;14.950;2023-05-07T03:41:11;1.50;;;1.30;;
11763;SDS011;5939;56.522;14.950;2023-05-07T03:43:37;1.90;;;1.60;;
11763;SDS011;5939;56.522;14.950;2023-05-07T03:46:03;2.27;;;1.53;;
11763;SDS011;5939;56.522;14.950;2023-05-07T03:48:29;1.73;;;1.57;;
11763;SDS011;5939;56.522;14.950;2023-05-07T03:50:56;3.43;;;1.60;;
11763;SDS011;5939;56.522;14.950;2023-05-07T03:53:22;1.93;;;1.70;;
11763;SDS011;5939;56.522;14.950;2023-05-07T03:55:48;1.97;;;1.50;;
11763;SDS011;5939;56.522;14.950;2023-05-07T03:58:15;4.13;;;1.47;;
11763;SDS011;5939;56.522;14.950;2023-05-07T04:00:41;1.47;;;1.37;;
11763;SDS011;5939;56.522;14.950;2023-05-07T04:03:07;2.10;;;1.80;;
11763;SDS011;5939;56.522;14.950;2023-05-07T04:05:33;2.07;;;1.60;;
11763;SDS011;5939;56.522;14.950;2023-05-07T04:08:00;1.60;;;1.40;;
11763;SDS011;5939;56.522;14.950;2023-05-07T04:10:27;1.67;;;1.57;;
11763;SDS011;5939;56.522;14.950;2023-05-07T04:12:53;1.50;;;1.40;;
11763;SDS011;5939;56.522;14.950;2023-05-07T04:15:19;1.50;;;1.30;;
11763;SDS011;5939;56.522;14.950;2023-05-07T04:17:45;1.97;;;1.63;;
11763;SDS011;5939;56.522;14.950;2023-05-07T04:20:15;2.13;;;1.50;;
11763;SDS011;5939;56.522;14.950;2023-05-07T04:22:41;2.13;;;1.60;;
11763;SDS011;5939;56.522;14.950;2023-05-07T04:25:08;1.43;;;1.30;;
11763;SDS011;5939;56.522;14.950;2023-05-07T04:27:34;3.43;;;1.60;;
11763;SDS011;5939;56.522;14.950;2023-05-07T04:30:00;1.50;;;1.40;;
11763;SDS011;5939;56.522;14.950;2023-05-07T04:32:27;3.10;;;1.50;;
11763;SDS011;5939;56.522;14.950;2023-05-07T04:34:54;2.17;;;1.70;;
11763;SDS011;5939;56.522;14.950;2023-05-07T04:37:20;2.47;;;1.30;;
11763;SDS011;5939;56.522;14.950;2023-05-07T04:39:46;1.97;;;1.40;;
11763;SDS011;5939;56.522;14.950;2023-05-07T04:42:16;1.77;;;1.40;;
11763;SDS011;5939;56.522;14.950;2023-05-07T04:44:43;1.43;;;1.33;;
11763;SDS011;5939;56.522;14.950;2023-05-07T04:47:09;1.50;;;1.40;;
11763;SDS011;5939;56.522;14.950;2023-05-07T04:49:36;2.10;;;1.53;;
11763;SDS011;5939;56.522;14.950;2023-05-07T04:52:02;1.80;;;1.40;;
11763;SDS011;5939;56.522;14.950;2023-05-07T04:54:28;2.17;;;1.60;;
11763;SDS011;5939;56.522;14.950;2023-05-07T04:56:54;3.53;;;1.30;;
11763;SDS011;5939;56.522;14.950;2023-05-07T04:59:20;1.97;;;1.50;;
11763;SDS011;5939;56.522;14.950;2023-05-07T05:01:46;3.03;;;1.40;;
11763;SDS011;5939;56.522;14.950;2023-05-07T05:04:13;4.17;;;1.60;;
11763;SDS011;5939;56.522;14.950;2023-05-07T05:06:39;1.93;;;1.40;;
11763;SDS011;5939;56.522;14.950;2023-05-07T05:09:05;1.73;;;1.63;;
11763;SDS011;5939;56.522;14.950;2023-05-07T05:11:31;2.23;;;1.60;;
11763;SDS011;5939;56.522;14.950;2023-05-07T05:13:58;2.47;;;1.50;;
11763;SDS011;5939;56.522;14.950;2023-05-07T05:16:25;1.83;;;1.50;;
11763;SDS011;5939;56.522;14.950;2023-05-07T05:18:51;1.70;;;1.50;;
11763;SDS011;5939;56.522;14.950;2023-05-07T05:21:19;4.63;;;1.77;;
11763;SDS011;5939;56.522;14.950;2023-05-07T05:23:45;1.97;;;1.37;;
11763;SDS011;5939;56.522;14.950;2023-05-07T05:26:11;2.20;;;1.67;;
11763;SDS011;5939;56.522;14.950;2023-05-07T05:28:37;1.63;;;1.53;;
11763;SDS011;5939;56.522;14.950;2023-05-07T05:31:04;2.90;;;1.43;;
11763;SDS011;5939;56.522;14.950;2023-05-07T05:33:30;2.07;;;1.67;;
11763;SDS011;5939;56.522;14.950;2023-05-07T05:35:56;3.27;;;1.60;;
11763;SDS011;5939;56.522;14.950;2023-05-07T05:38:22;3.50;;;1.70;;
11763;SDS011;5939;56.522;14.950;2023-05-07T05:40:48;1.73;;;1.50;;
11763;SDS011;5939;56.522;14.950;2023-05-07T05:43:14;1.73;;;1.57;;
11763;SDS011;5939;56.522;14.950;2023-05-07T05:45:40;3.27;;;1.90;;
11763;SDS011;5939;56.522;14.950;2023-05-07T05:48:06;3.33;;;1.73;;
11763;SDS011;5939;56.522;14.950;2023-05-07T05:50:33;1.83;;;1.30;;
11763;SDS011;5939;56.522;14.950;2023-05-07T05:53:01;2.23;;;1.50;;
11763;SDS011;5939;56.522;14.950;2023-05-07T05:55:27;2.80;;;1.90;;
11763;SDS011;5939;56.522;14.950;2023-05-07T05:57:53;1.57;;;1.47;;
11763;SDS011;5939;56.522;14.950;2023-05-07T06:00:19;2.07;;;1.83;;
11763;SDS011;5939;56.522;14.950;2023-05-07T06:02:47;2.23;;;1.80;;
11763;SDS011;5939;56.522;14.950;2023-05-07T06:05:13;4.07;;;1.97;;
11763;SDS011;5939;56.522;14.950;2023-05-07T06:07:39;2.37;;;1.50;;
11763;SDS011;5939;56.522;14.950;2023-05-07T06:10:06;3.57;;;1.70;;
11763;SDS011;5939;56.522;14.950;2023-05-07T06:12:32;3.53;;;1.60;;
11763;SDS011;5939;56.522;14.950;2023-05-07T06:14:58;2.27;;;1.80;;
11763;SDS011;5939;56.522;14.950;2023-05-07T06:17:24;3.43;;;1.57;;
11763;SDS011;5939;56.522;14.950;2023-05-07T06:19:50;2.83;;;1.50;;
11763;SDS011;5939;56.522;14.950;2023-05-07T06:22:16;3.90;;;1.77;;
11763;SDS011;5939;56.522;14.950;2023-05-07T06:24:42;2.13;;;1.80;;
11763;SDS011;5939;56.522;14.950;2023-05-07T06:27:08;4.73;;;1.70;;
11763;SDS011;5939;56.522;14.950;2023-05-07T06:29:34;2.37;;;1.70;;
11763;SDS011;5939;56.522;14.950;2023-05-07T06:32:10;2.47;;;1.77;;
11763;SDS011;5939;56.522;14.950;2023-05-07T06:34:36;4.27;;;1.97;;
11763;SDS011;5939;56.522;14.950;2023-05-07T06:37:03;6.03;;;1.80;;
11763;SDS011;5939;56.522;14.950;2023-05-07T06:39:29;3.50;;;1.40;;
11763;SDS011;5939;56.522;14.950;2023-05-07T06:41:55;2.60;;;1.70;;
11763;SDS011;5939;56.522;14.950;2023-05-07T06:44:21;2.13;;;1.83;;
11763;SDS011;5939;56.522;14.950;2023-05-07T06:46:47;3.30;;;1.83;;
11763;SDS011;5939;56.522;14.950;2023-05-07T06:49:13;2.33;;;1.70;;
11763;SDS011;5939;56.522;14.950;2023-05-07T06:51:39;3.23;;;1.80;;
11763;SDS011;5939;56.522;14.950;2023-05-07T06:54:05;3.13;;;1.80;;
11763;SDS011;5939;56.522;14.950;2023-05-07T06:56:32;3.80;;;1.73;;
11763;SDS011;5939;56.522;14.950;2023-05-07T06:59:02;2.50;;;1.93;;
11763;SDS011;5939;56.522;14.950;2023-05-07T07:01:28;4.40;;;2.23;;
11763;SDS011;5939;56.522;14.950;2023-05-07T07:03:54;3.33;;;1.90;;
11763;SDS011;5939;56.522;14.950;2023-05-07T07:06:20;2.17;;;1.93;;
11763;SDS011;5939;56.522;14.950;2023-05-07T07:08:46;4.53;;;1.80;;
11763;SDS011;5939;56.522;14.950;2023-05-07T07:11:13;2.53;;;1.70;;
11763;SDS011;5939;56.522;14.950;2023-05-07T07:13:39;4.17;;;2.10;;
11763;SDS011;5939;56.522;14.950;2023-05-07T07:16:05;3.57;;;1.90;;
11763;SDS011;5939;56.522;14.950;2023-05-07T07:18:31;2.87;;;1.80;;
11763;SDS011;5939;56.522;14.950;2023-05-07T07:20:57;2.37;;;1.80;;
11763;SDS011;5939;56.522;14.950;2023-05-07T07:23:24;2.50;;;1.70;;
11763;SDS011;5939;56.522;14.950;2023-05-07T07:25:50;3.47;;;1.90;;
11763;SDS011;5939;56.522;14.950;2023-05-07T07:28:16;2.17;;;1.87;;
11763;SDS011;5939;56.522;14.950;2023-05-07T07:30:42;3.10;;;1.77;;
11763;SDS011;5939;56.522;14.950;2023-05-07T07:33:09;3.60;;;1.90;;
11763;SDS011;5939;56.522;14.950;2023-05-07T07:35:35;3.33;;;1.90;;
11763;SDS011;5939;56.522;14.950;2023-05-07T07:38:01;4.40;;;2.13;;
11763;SDS011;5939;56.522;14.950;2023-05-07T07:40:27;2.40;;;1.80;;
11763;SDS011;5939;56.522;14.950;2023-05-07T07:42:53;1.93;;;1.63;;
11763;SDS011;5939;56.522;14.950;2023-05-07T07:45:19;2.17;;;1.80;;
11763;SDS011;5939;56.522;14.950;2023-05-07T07:47:45;4.53;;;1.80;;
11763;SDS011;5939;56.522;14.950;2023-05-07T07:50:11;4.07;;;2.10;;
11763;SDS011;5939;56.522;14.950;2023-05-07T07:52:37;3.77;;;1.83;;
11763;SDS011;5939;56.522;14.950;2023-05-07T07:55:04;2.60;;;2.00;;
11763;SDS011;5939;56.522;14.950;2023-05-07T07:57:30;2.33;;;1.73;;
11763;SDS011;5939;56.522;14.950;2023-05-07T07:59:56;2.37;;;1.80;;
11763;SDS011;5939;56.522;14.950;2023-05-07T08:02:22;3.90;;;2.13;;
11763;SDS011;5939;56.522;14.950;2023-05-07T08:04:48;3.77;;;2.10;;
11763;SDS011;5939;56.522;14.950;2023-05-07T08:07:14;4.27;;;2.60;;
11763;SDS011;5939;56.522;14.950;2023-05-07T08:09:40;5.70;;;2.10;;
11763;SDS011;5939;56.522;14.950;2023-05-07T08:12:06;2.97;;;1.93;;
11763;SDS011;5939;56.522;14.950;2023-05-07T08:14:32;3.40;;;2.23;;
11763;SDS011;5939;56.522;14.950;2023-05-07T08:16:58;3.83;;;2.03;;
11763;SDS011;5939;56.522;14.950;2023-05-07T08:19:24;2.60;;;2.00;;
11763;SDS011;5939;56.522;14.950;2023-05-07T08:21:49;3.67;;;2.20;;
11763;SDS011;5939;56.522;14.950;2023-05-07T08:24:15;3.33;;;2.20;;
11763;SDS011;5939;56.522;14.950;2023-05-07T08:26:41;4.63;;;2.23;;
11763;SDS011;5939;56.522;14.950;2023-05-07T08:29:08;4.27;;;2.70;;
11763;SDS011;5939;56.522;14.950;2023-05-07T08:31:33;3.37;;;2.30;;
11763;SDS011;5939;56.522;14.950;2023-05-07T08:33:59;3.07;;;2.30;;
11763;SDS011;5939;56.522;14.950;2023-05-07T08:36:25;3.03;;;2.57;;
11763;SDS011;5939;56.522;14.950;2023-05-07T08:38:51;4.00;;;2.23;;
11763;SDS011;5939;56.522;14.950;2023-05-07T08:41:17;3.20;;;2.40;;
11763;SDS011;5939;56.522;14.950;2023-05-07T08:43:42;2.90;;;2.37;;
11763;SDS011;5939;56.522;14.950;2023-05-07T08:46:13;3.57;;;2.70;;
11763;SDS011;5939;56.522;14.950;2023-05-07T08:48:44;3.40;;;2.40;;
11763;SDS011;5939;56.522;14.950;2023-05-07T08:51:14;3.37;;;2.47;;
11763;SDS011;5939;56.522;14.950;2023-05-07T08:53:42;3.40;;;2.33;;
11763;SDS011;5939;56.522;14.950;2023-05-07T08:56:08;2.70;;;2.50;;
11763;SDS011;5939;56.522;14.950;2023-05-07T08:58:34;4.70;;;2.17;;
11763;SDS011;5939;56.522;14.950;2023-05-07T09:01:01;3.43;;;2.80;;
11763;SDS011;5939;56.522;14.950;2023-05-07T09:03:34;3.50;;;2.43;;
11763;SDS011;5939;56.522;14.950;2023-05-07T09:06:00;4.90;;;2.57;;
11763;SDS011;5939;56.522;14.950;2023-05-07T09:08:26;4.73;;;2.80;;
11763;SDS011;5939;56.522;14.950;2023-05-07T09:10:52;4.03;;;2.50;;
11763;SDS011;5939;56.522;14.950;2023-05-07T09:13:18;3.80;;;2.67;;
11763;SDS011;5939;56.522;14.950;2023-05-07T09:15:44;4.37;;;2.70;;
11763;SDS011;5939;56.522;14.950;2023-05-07T09:18:10;3.40;;;2.57;;
11763;SDS011;5939;56.522;14.950;2023-05-07T09:20:38;3.50;;;3.03;;
11763;SDS011;5939;56.522;14.950;2023-05-07T09:23:04;5.13;;;3.00;;
11763;SDS011;5939;56.522;14.950;2023-05-07T09:25:32;3.30;;;2.63;;
11763;SDS011;5939;56.522;14.950;2023-05-07T09:27:59;3.43;;;2.90;;
11763;SDS011;5939;56.522;14.950;2023-05-07T09:30:29;4.47;;;2.90;;
11763;SDS011;5939;56.522;14.950;2023-05-07T09:32:57;3.30;;;3.00;;
11763;SDS011;5939;56.522;14.950;2023-05-07T09:35:24;4.23;;;2.90;;
11763;SDS011;5939;56.522;14.950;2023-05-07T09:37:58;4.20;;;2.60;;
11763;SDS011;5939;56.522;14.950;2023-05-07T09:40:25;3.50;;;2.40;;
11763;SDS011;5939;56.522;14.950;2023-05-07T09:42:53;3.30;;;3.00;;
11763;SDS011;5939;56.522;14.950;2023-05-07T09:45:22;4.00;;;3.30;;
11763;SDS011;5939;56.522;14.950;2023-05-07T09:47:55;4.63;;;2.53;;
11763;SDS011;5939;56.522;14.950;2023-05-07T09:50:29;4.20;;;2.97;;
11763;SDS011;5939;56.522;14.950;2023-05-07T09:52:58;4.57;;;2.60;;
11763;SDS011;5939;56.522;14.950;2023-05-07T09:55:24;3.83;;;2.70;;
11763;SDS011;5939;56.522;14.950;2023-05-07T09:57:51;3.23;;;2.53;;
11763;SDS011;5939;56.522;14.950;2023-05-07T10:00:21;3.23;;;2.60;;
11763;SDS011;5939;56.522;14.950;2023-05-07T10:02:48;3.00;;;2.70;;
11763;SDS011;5939;56.522;14.950;2023-05-07T10:05:17;4.40;;;2.80;;
11763;SDS011;5939;56.522;14.950;2023-05-07T10:07:44;4.50;;;2.53;;
11763;SDS011;5939;56.522;14.950;2023-05-07T10:10:10;5.03;;;2.80;;
11763;SDS011;5939;56.522;14.950;2023-05-07T10:12:37;4.50;;;2.90;;
11763;SDS011;5939;56.522;14.950;2023-05-07T10:15:05;4.63;;;2.83;;
11763;SDS011;5939;56.522;14.950;2023-05-07T10:17:34;2.97;;;2.67;;
11763;SDS011;5939;56.522;14.950;2023-05-07T10:20:04;4.20;;;2.60;;
11763;SDS011;5939;56.522;14.950;2023-05-07T10:22:41;3.23;;;2.70;;
11763;SDS011;5939;56.522;14.950;2023-05-07T10:25:12;3.70;;;2.90;;
11763;SDS011;5939;56.522;14.950;2023-05-07T10:27:50;4.27;;;3.00;;
11763;SDS011;5939;56.522;14.950;2023-05-07T10:32:55;3.00;;;2.50;;
11763;SDS011;5939;56.522;14.950;2023-05-07T10:35:31;4.90;;;2.67;;
11763;SDS011;5939;56.522;14.950;2023-05-07T10:38:02;4.17;;;2.43;;
11763;SDS011;5939;56.522;14.950;2023-05-07T10:40:29;5.60;;;3.00;;
11763;SDS011;5939;56.522;14.950;2023-05-07T10:45:25;3.00;;;2.70;;
11763;SDS011;5939;56.522;14.950;2023-05-07T10:48:07;4.33;;;2.60;;
11763;SDS011;5939;56.522;14.950;2023-05-07T10:50:37;3.20;;;2.50;;
11763;SDS011;5939;56.522;14.950;2023-05-07T10:55:46;4.40;;;2.77;;
11763;SDS011;5939;56.522;14.950;2023-05-07T10:58:30;4.07;;;2.57;;
11763;SDS011;5939;56.522;14.950;2023-05-07T11:00:58;3.47;;;2.70;;
11763;SDS011;5939;56.522;14.950;2023-05-07T11:03:26;3.33;;;2.60;;
11763;SDS011;5939;56.522;14.950;2023-05-07T11:06:11;3.90;;;2.53;;
11763;SDS011;5939;56.522;14.950;2023-05-07T11:08:56;4.40;;;2.87;;
11763;SDS011;5939;56.522;14.950;2023-05-07T11:17:11;6.23;;;2.93;;
11763;SDS011;5939;56.522;14.950;2023-05-07T11:22:37;5.00;;;3.10;;
11763;SDS011;5939;56.522;14.950;2023-05-07T11:25:05;4.27;;;2.10;;
11763;SDS011;5939;56.522;14.950;2023-05-07T11:27:31;3.93;;;2.40;;
11763;SDS011;5939;56.522;14.950;2023-05-07T11:29:58;3.30;;;2.50;;
11763;SDS011;5939;56.522;14.950;2023-05-07T11:32:26;2.80;;;2.40;;
11763;SDS011;5939;56.522;14.950;2023-05-07T11:34:54;3.40;;;2.87;;
11763;SDS011;5939;56.522;14.950;2023-05-07T11:37:20;4.33;;;2.30;;
11763;SDS011;5939;56.522;14.950;2023-05-07T11:39:47;3.43;;;2.30;;
11763;SDS011;5939;56.522;14.950;2023-05-07T11:44:55;2.80;;;2.27;;
11763;SDS011;5939;56.522;14.950;2023-05-07T11:47:21;3.87;;;2.70;;
11763;SDS011;5939;56.522;14.950;2023-05-07T11:49:50;2.77;;;2.10;;
11763;SDS011;5939;56.522;14.950;2023-05-07T11:52:20;3.77;;;2.30;;
11763;SDS011;5939;56.522;14.950;2023-05-07T11:54:53;3.87;;;2.60;;
11763;SDS011;5939;56.522;14.950;2023-05-07T11:57:20;4.20;;;2.60;;
11763;SDS011;5939;56.522;14.950;2023-05-07T11:59:46;4.67;;;2.40;;
11763;SDS011;5939;56.522;14.950;2023-05-07T12:02:16;2.97;;;2.43;;
11763;SDS011;5939;56.522;14.950;2023-05-07T12:04:42;2.60;;;2.40;;
11763;SDS011;5939;56.522;14.950;2023-05-07T12:07:14;3.33;;;2.30;;
11763;SDS011;5939;56.522;14.950;2023-05-07T12:09:44;3.83;;;2.37;;
11763;SDS011;5939;56.522;14.950;2023-05-07T12:12:10;3.93;;;2.30;;
11763;SDS011;5939;56.522;14.950;2023-05-07T12:14:40;4.80;;;2.63;;
11763;SDS011;5939;56.522;14.950;2023-05-07T12:17:10;4.23;;;2.03;;
11763;SDS011;5939;56.522;14.950;2023-05-07T12:19:37;2.47;;;2.00;;
11763;SDS011;5939;56.522;14.950;2023-05-07T12:22:04;2.77;;;2.10;;
11763;SDS011;5939;56.522;14.950;2023-05-07T12:27:13;4.10;;;2.10;;
11763;SDS011;5939;56.522;14.950;2023-05-07T12:29:39;3.10;;;2.53;;
11763;SDS011;5939;56.522;14.950;2023-05-07T12:32:12;3.03;;;2.30;;
11763;SDS011;5939;56.522;14.950;2023-05-07T12:34:40;3.23;;;2.43;;
11763;SDS011;5939;56.522;14.950;2023-05-07T12:37:05;5.17;;;2.50;;
11763;SDS011;5939;56.522;14.950;2023-05-07T12:39:31;3.33;;;2.20;;
11763;SDS011;5939;56.522;14.950;2023-05-07T12:41:58;4.00;;;2.20;;
11763;SDS011;5939;56.522;14.950;2023-05-07T12:44:31;3.40;;;2.43;;
11763;SDS011;5939;56.522;14.950;2023-05-07T12:46:58;2.70;;;2.07;;
11763;SDS011;5939;56.522;14.950;2023-05-07T12:49:26;3.63;;;2.47;;
11763;SDS011;5939;56.522;14.950;2023-05-07T12:51:51;3.70;;;2.40;;
11763;SDS011;5939;56.522;14.950;2023-05-07T12:54:31;4.27;;;2.37;;
11763;SDS011;5939;56.522;14.950;2023-05-07T12:57:01;3.97;;;2.70;;
11763;SDS011;5939;56.522;14.950;2023-05-07T12:59:41;2.50;;;2.30;;
11763;SDS011;5939;56.522;14.950;2023-05-07T13:02:07;3.73;;;2.60;;
11763;SDS011;5939;56.522;14.950;2023-05-07T13:04:34;6.20;;;2.17;;
11763;SDS011;5939;56.522;14.950;2023-05-07T13:07:00;4.13;;;2.43;;
11763;SDS011;5939;56.522;14.950;2023-05-07T13:09:26;3.43;;;2.30;;
11763;SDS011;5939;56.522;14.950;2023-05-07T13:11:53;2.93;;;2.37;;
11763;SDS011;5939;56.522;14.950;2023-05-07T13:14:19;3.37;;;2.23;;
11763;SDS011;5939;56.522;14.950;2023-05-07T13:16:46;3.50;;;2.40;;
11763;SDS011;5939;56.522;14.950;2023-05-07T13:19:12;5.93;;;2.43;;
11763;SDS011;5939;56.522;14.950;2023-05-07T13:21:37;2.70;;;1.97;;
11763;SDS011;5939;56.522;14.950;2023-05-07T13:24:03;3.83;;;2.40;;
11763;SDS011;5939;56.522;14.950;2023-05-07T13:26:30;4.00;;;2.50;;
11763;SDS011;5939;56.522;14.950;2023-05-07T13:28:56;2.93;;;2.33;;
11763;SDS011;5939;56.522;14.950;2023-05-07T13:31:22;3.53;;;2.00;;
11763;SDS011;5939;56.522;14.950;2023-05-07T13:33:48;3.57;;;2.20;;
11763;SDS011;5939;56.522;14.950;2023-05-07T13:36:14;3.93;;;2.37;;
11763;SDS011;5939;56.522;14.950;2023-05-07T13:38:40;5.17;;;2.57;;
11763;SDS011;5939;56.522;14.950;2023-05-07T13:41:05;4.10;;;2.20;;
11763;SDS011;5939;56.522;14.950;2023-05-07T13:43:31;2.47;;;2.10;;
11763;SDS011;5939;56.522;14.950;2023-05-07T13:46:00;4.20;;;2.10;;
11763;SDS011;5939;56.522;14.950;2023-05-07T13:48:26;4.17;;;2.47;;
11763;SDS011;5939;56.522;14.950;2023-05-07T13:50:51;2.90;;;2.00;;
11763;SDS011;5939;56.522;14.950;2023-05-07T13:53:17;4.57;;;2.30;;
11763;SDS011;5939;56.522;14.950;2023-05-07T13:55:43;3.90;;;2.40;;
11763;SDS011;5939;56.522;14.950;2023-05-07T13:58:10;3.33;;;2.20;;
11763;SDS011;5939;56.522;14.950;2023-05-07T14:00:35;2.60;;;2.17;;
11763;SDS011;5939;56.522;14.950;2023-05-07T14:03:02;7.47;;;2.20;;
11763;SDS011;5939;56.522;14.950;2023-05-07T14:05:28;3.20;;;2.13;;
11763;SDS011;5939;56.522;14.950;2023-05-07T14:07:54;2.50;;;1.97;;
11763;SDS011;5939;56.522;14.950;2023-05-07T14:10:21;2.70;;;1.93;;
11763;SDS011;5939;56.522;14.950;2023-05-07T14:12:47;2.17;;;1.90;;
11763;SDS011;5939;56.522;14.950;2023-05-07T14:15:13;3.40;;;2.40;;
11763;SDS011;5939;56.522;14.950;2023-05-07T14:17:39;2.30;;;2.00;;
11763;SDS011;5939;56.522;14.950;2023-05-07T14:20:05;2.97;;;2.10;;
11763;SDS011;5939;56.522;14.950;2023-05-07T14:22:34;2.63;;;2.00;;
11763;SDS011;5939;56.522;14.950;2023-05-07T14:25:00;2.67;;;2.03;;
11763;SDS011;5939;56.522;14.950;2023-05-07T14:27:25;3.07;;;2.10;;
11763;SDS011;5939;56.522;14.950;2023-05-07T14:29:51;2.80;;;1.90;;
11763;SDS011;5939;56.522;14.950;2023-05-07T14:32:17;2.43;;;1.97;;
11763;SDS011;5939;56.522;14.950;2023-05-07T14:34:43;3.10;;;2.07;;
11763;SDS011;5939;56.522;14.950;2023-05-07T14:37:09;3.67;;;2.10;;
11763;SDS011;5939;56.522;14.950;2023-05-07T14:39:35;4.13;;;2.47;;
11763;SDS011;5939;56.522;14.950;2023-05-07T14:42:01;2.57;;;1.93;;
11763;SDS011;5939;56.522;14.950;2023-05-07T14:44:27;5.57;;;2.20;;
11763;SDS011;5939;56.522;14.950;2023-05-07T14:46:52;3.40;;;2.23;;
11763;SDS011;5939;56.522;14.950;2023-05-07T14:49:18;4.33;;;2.07;;
11763;SDS011;5939;56.522;14.950;2023-05-07T14:51:44;2.97;;;2.00;;
11763;SDS011;5939;56.522;14.950;2023-05-07T14:54:11;2.47;;;2.00;;
11763;SDS011;5939;56.522;14.950;2023-05-07T14:56:37;3.03;;;2.10;;
11763;SDS011;5939;56.522;14.950;2023-05-07T14:59:03;3.57;;;2.13;;
11763;SDS011;5939;56.522;14.950;2023-05-07T15:01:29;2.80;;;1.90;;
11763;SDS011;5939;56.522;14.950;2023-05-07T15:03:54;3.63;;;2.13;;
11763;SDS011;5939;56.522;14.950;2023-05-07T15:06:20;4.63;;;2.30;;
11763;SDS011;5939;56.522;14.950;2023-05-07T15:08:46;4.40;;;2.00;;